sensor_id;sensor_type;location;lat;lon;timestamp;P1;durP1;ratioP1;P2;durP2;ratioP2
4414;SDS011;2220;42.670;23.398;2023-02-01T00:01:37;6.28;;;5.13;;
4414;SDS011;2220;42.670;23.398;2023-02-01T00:04:03;6.85;;;3.65;;
4414;SDS011;2220;42.670;23.398;2023-02-01T00:06:28;5.57;;;4.53;;
4414;SDS011;2220;42.670;23.398;2023-02-01T00:08:54;6.28;;;4.40;;
4414;SDS011;2220;42.670;23.398;2023-02-01T00:11:20;9.13;;;5.10;;
4414;SDS011;2220;42.670;23.398;2023-02-01T00:13:47;8.73;;;3.28;;
4414;SDS011;2220;42.670;23.398;2023-02-01T00:16:16;4.00;;;3.08;;
4414;SDS011;2220;42.670;23.398;2023-02-01T00:18:56;5.32;;;4.82;;
4414;SDS011;2220;42.670;23.398;2023-02-01T00:21:42;4.70;;;3.65;;
4414;SDS011;2220;42.670;23.398;2023-02-01T00:24:09;6.70;;;4.80;;
4414;SDS011;2220;42.670;23.398;2023-02-01T00:26:38;6.65;;;5.07;;
4414;SDS011;2220;42.670;23.398;2023-02-01T00:29:08;8.73;;;5.70;;
4414;SDS011;2220;42.670;23.398;2023-02-01T00:31:37;10.27;;;5.82;;
4414;SDS011;2220;42.670;23.398;2023-02-01T00:34:03;3.38;;;2.33;;
4414;SDS011;2220;42.670;23.398;2023-02-01T00:36:28;5.80;;;4.90;;
4414;SDS011;2220;42.670;23.398;2023-02-01T00:38:55;4.68;;;4.13;;
4414;SDS011;2220;42.670;23.398;2023-02-01T00:41:20;4.28;;;3.72;;
4414;SDS011;2220;42.670;23.398;2023-02-01T00:43:47;8.77;;;5.07;;
4414;SDS011;2220;42.670;23.398;2023-02-01T00:46:14;5.47;;;3.55;;
4414;SDS011;2220;42.670;23.398;2023-02-01T00:48:40;6.43;;;4.10;;
4414;SDS011;2220;42.670;23.398;2023-02-01T00:51:08;4.50;;;4.05;;
4414;SDS011;2220;42.670;23.398;2023-02-01T00:53:35;3.92;;;2.47;;
4414;SDS011;2220;42.670;23.398;2023-02-01T00:56:01;9.48;;;4.28;;
4414;SDS011;2220;42.670;23.398;2023-02-01T00:58:27;4.38;;;3.00;;
4414;SDS011;2220;42.670;23.398;2023-02-01T01:03:28;4.75;;;3.63;;
4414;SDS011;2220;42.670;23.398;2023-02-01T01:05:58;3.72;;;2.75;;
4414;SDS011;2220;42.670;23.398;2023-02-01T01:08:24;4.97;;;3.38;;
4414;SDS011;2220;42.670;23.398;2023-02-01T01:10:49;5.90;;;4.15;;
4414;SDS011;2220;42.670;23.398;2023-02-01T01:13:15;2.78;;;2.15;;
4414;SDS011;2220;42.670;23.398;2023-02-01T01:15:40;3.70;;;3.03;;
4414;SDS011;2220;42.670;23.398;2023-02-01T01:18:06;7.82;;;3.50;;
4414;SDS011;2220;42.670;23.398;2023-02-01T01:20:36;5.68;;;3.55;;
4414;SDS011;2220;42.670;23.398;2023-02-01T01:23:04;5.43;;;2.90;;
4414;SDS011;2220;42.670;23.398;2023-02-01T01:25:30;7.47;;;2.28;;
4414;SDS011;2220;42.670;23.398;2023-02-01T01:27:55;2.65;;;2.42;;
4414;SDS011;2220;42.670;23.398;2023-02-01T01:30:21;6.25;;;3.42;;
4414;SDS011;2220;42.670;23.398;2023-02-01T01:32:47;8.40;;;2.83;;
4414;SDS011;2220;42.670;23.398;2023-02-01T01:35:12;5.07;;;2.38;;
4414;SDS011;2220;42.670;23.398;2023-02-01T01:37:38;2.83;;;2.42;;
4414;SDS011;2220;42.670;23.398;2023-02-01T01:40:04;1.75;;;1.45;;
4414;SDS011;2220;42.670;23.398;2023-02-01T01:42:36;4.32;;;2.65;;
4414;SDS011;2220;42.670;23.398;2023-02-01T01:45:07;2.00;;;1.90;;
4414;SDS011;2220;42.670;23.398;2023-02-01T01:47:37;4.55;;;2.90;;
4414;SDS011;2220;42.670;23.398;2023-02-01T01:50:08;7.60;;;2.85;;
4414;SDS011;2220;42.670;23.398;2023-02-01T01:52:37;6.00;;;3.08;;
4414;SDS011;2220;42.670;23.398;2023-02-01T01:55:06;2.63;;;2.42;;
4414;SDS011;2220;42.670;23.398;2023-02-01T01:57:34;4.22;;;3.22;;
4414;SDS011;2220;42.670;23.398;2023-02-01T02:00:05;5.00;;;2.95;;
4414;SDS011;2220;42.670;23.398;2023-02-01T02:02:34;3.15;;;2.35;;
4414;SDS011;2220;42.670;23.398;2023-02-01T02:05:01;3.42;;;2.38;;
4414;SDS011;2220;42.670;23.398;2023-02-01T02:07:28;2.28;;;2.13;;
4414;SDS011;2220;42.670;23.398;2023-02-01T02:09:57;2.40;;;2.05;;
4414;SDS011;2220;42.670;23.398;2023-02-01T02:12:23;4.95;;;3.38;;
4414;SDS011;2220;42.670;23.398;2023-02-01T02:14:48;2.63;;;2.38;;
4414;SDS011;2220;42.670;23.398;2023-02-01T02:20:09;3.58;;;2.70;;
4414;SDS011;2220;42.670;23.398;2023-02-01T02:22:48;4.35;;;2.75;;
4414;SDS011;2220;42.670;23.398;2023-02-01T02:45:05;4.38;;;2.20;;
4414;SDS011;2220;42.670;23.398;2023-02-01T02:47:54;3.33;;;2.10;;
4414;SDS011;2220;42.670;23.398;2023-02-01T02:50:24;4.40;;;2.28;;
4414;SDS011;2220;42.670;23.398;2023-02-01T02:53:18;4.18;;;2.88;;
4414;SDS011;2220;42.670;23.398;2023-02-01T02:56:07;4.85;;;2.28;;
4414;SDS011;2220;42.670;23.398;2023-02-01T02:58:53;3.70;;;2.13;;
4414;SDS011;2220;42.670;23.398;2023-02-01T03:01:38;4.15;;;2.72;;
4414;SDS011;2220;42.670;23.398;2023-02-01T03:04:23;3.47;;;2.58;;
4414;SDS011;2220;42.670;23.398;2023-02-01T03:06:51;6.03;;;2.72;;
4414;SDS011;2220;42.670;23.398;2023-02-01T03:09:26;8.55;;;2.85;;
4414;SDS011;2220;42.670;23.398;2023-02-01T03:11:58;4.25;;;2.42;;
4414;SDS011;2220;42.670;23.398;2023-02-01T03:14:49;1.35;;;1.23;;
4414;SDS011;2220;42.670;23.398;2023-02-01T03:17:19;1.95;;;1.67;;
4414;SDS011;2220;42.670;23.398;2023-02-01T03:19:51;2.38;;;1.77;;
4414;SDS011;2220;42.670;23.398;2023-02-01T03:22:20;2.63;;;1.55;;
4414;SDS011;2220;42.670;23.398;2023-02-01T03:24:55;3.97;;;2.13;;
4414;SDS011;2220;42.670;23.398;2023-02-01T03:27:26;1.90;;;1.45;;
4414;SDS011;2220;42.670;23.398;2023-02-01T03:32:22;5.47;;;1.33;;
4414;SDS011;2220;42.670;23.398;2023-02-01T03:34:48;3.15;;;1.70;;
4414;SDS011;2220;42.670;23.398;2023-02-01T03:37:16;2.53;;;1.65;;
4414;SDS011;2220;42.670;23.398;2023-02-01T03:39:53;2.90;;;1.98;;
4414;SDS011;2220;42.670;23.398;2023-02-01T03:42:21;8.52;;;2.38;;
4414;SDS011;2220;42.670;23.398;2023-02-01T03:44:57;4.07;;;2.63;;
4414;SDS011;2220;42.670;23.398;2023-02-01T03:47:29;5.50;;;2.25;;
4414;SDS011;2220;42.670;23.398;2023-02-01T03:50:04;5.25;;;1.27;;
4414;SDS011;2220;42.670;23.398;2023-02-01T03:52:34;1.65;;;1.55;;
4414;SDS011;2220;42.670;23.398;2023-02-01T03:55:05;3.23;;;1.97;;
4414;SDS011;2220;42.670;23.398;2023-02-01T03:57:33;5.85;;;2.22;;
4414;SDS011;2220;42.670;23.398;2023-02-01T04:00:04;6.35;;;2.47;;
4414;SDS011;2220;42.670;23.398;2023-02-01T04:02:32;2.33;;;1.73;;
4414;SDS011;2220;42.670;23.398;2023-02-01T04:04:58;3.03;;;2.10;;
4414;SDS011;2220;42.670;23.398;2023-02-01T04:07:24;3.60;;;1.88;;
4414;SDS011;2220;42.670;23.398;2023-02-01T04:09:49;2.67;;;2.10;;
4414;SDS011;2220;42.670;23.398;2023-02-01T04:12:14;1.10;;;1.10;;
4414;SDS011;2220;42.670;23.398;2023-02-01T04:14:40;6.78;;;2.22;;
4414;SDS011;2220;42.670;23.398;2023-02-01T04:17:05;2.97;;;2.13;;
4414;SDS011;2220;42.670;23.398;2023-02-01T04:19:31;7.10;;;2.22;;
4414;SDS011;2220;42.670;23.398;2023-02-01T04:21:56;5.55;;;1.48;;
4414;SDS011;2220;42.670;23.398;2023-02-01T04:24:21;2.22;;;1.38;;
4414;SDS011;2220;42.670;23.398;2023-02-01T04:26:47;1.27;;;1.17;;
4414;SDS011;2220;42.670;23.398;2023-02-01T04:29:12;6.15;;;2.25;;
4414;SDS011;2220;42.670;23.398;2023-02-01T04:31:38;3.53;;;2.20;;
4414;SDS011;2220;42.670;23.398;2023-02-01T04:34:03;1.77;;;1.67;;
4414;SDS011;2220;42.670;23.398;2023-02-01T04:36:29;6.30;;;2.40;;
4414;SDS011;2220;42.670;23.398;2023-02-01T04:38:54;1.23;;;1.17;;
4414;SDS011;2220;42.670;23.398;2023-02-01T04:41:20;6.65;;;2.22;;
4414;SDS011;2220;42.670;23.398;2023-02-01T04:43:47;2.72;;;2.40;;
4414;SDS011;2220;42.670;23.398;2023-02-01T04:46:14;8.50;;;1.45;;
4414;SDS011;2220;42.670;23.398;2023-02-01T04:48:39;0.75;;;0.75;;
4414;SDS011;2220;42.670;23.398;2023-02-01T04:51:05;2.70;;;2.50;;
4414;SDS011;2220;42.670;23.398;2023-02-01T04:53:31;1.83;;;1.73;;
4414;SDS011;2220;42.670;23.398;2023-02-01T04:55:57;1.80;;;1.70;;
4414;SDS011;2220;42.670;23.398;2023-02-01T04:58:22;2.90;;;1.88;;
4414;SDS011;2220;42.670;23.398;2023-02-01T05:00:48;4.15;;;3.03;;
4414;SDS011;2220;42.670;23.398;2023-02-01T05:03:14;1.98;;;1.65;;
4414;SDS011;2220;42.670;23.398;2023-02-01T05:05:40;5.70;;;2.83;;
4414;SDS011;2220;42.670;23.398;2023-02-01T05:08:07;5.55;;;1.95;;
4414;SDS011;2220;42.670;23.398;2023-02-01T05:10:33;7.20;;;2.80;;
4414;SDS011;2220;42.670;23.398;2023-02-01T05:12:58;2.42;;;1.50;;
4414;SDS011;2220;42.670;23.398;2023-02-01T05:18:07;5.93;;;2.90;;
4414;SDS011;2220;42.670;23.398;2023-02-01T05:20:33;3.22;;;1.70;;
4414;SDS011;2220;42.670;23.398;2023-02-01T05:22:58;2.97;;;2.22;;
4414;SDS011;2220;42.670;23.398;2023-02-01T05:25:24;2.42;;;2.22;;
4414;SDS011;2220;42.670;23.398;2023-02-01T05:27:49;6.93;;;1.52;;
4414;SDS011;2220;42.670;23.398;2023-02-01T05:30:15;3.85;;;2.22;;
4414;SDS011;2220;42.670;23.398;2023-02-01T05:32:41;5.40;;;2.50;;
4414;SDS011;2220;42.670;23.398;2023-02-01T05:35:06;4.72;;;3.95;;
4414;SDS011;2220;42.670;23.398;2023-02-01T05:37:32;4.72;;;1.90;;
4414;SDS011;2220;42.670;23.398;2023-02-01T05:39:58;4.97;;;3.05;;
4414;SDS011;2220;42.670;23.398;2023-02-01T05:42:23;5.22;;;1.92;;
4414;SDS011;2220;42.670;23.398;2023-02-01T05:44:49;4.85;;;2.70;;
4414;SDS011;2220;42.670;23.398;2023-02-01T05:47:14;6.18;;;3.53;;
4414;SDS011;2220;42.670;23.398;2023-02-01T05:49:39;8.20;;;2.15;;
4414;SDS011;2220;42.670;23.398;2023-02-01T05:52:05;5.68;;;2.45;;
4414;SDS011;2220;42.670;23.398;2023-02-01T05:54:30;5.07;;;3.72;;
4414;SDS011;2220;42.670;23.398;2023-02-01T05:56:56;3.50;;;3.17;;
4414;SDS011;2220;42.670;23.398;2023-02-01T05:59:21;3.78;;;2.63;;
4414;SDS011;2220;42.670;23.398;2023-02-01T06:01:47;5.15;;;3.20;;
4414;SDS011;2220;42.670;23.398;2023-02-01T06:04:12;5.00;;;2.63;;
4414;SDS011;2220;42.670;23.398;2023-02-01T06:06:38;6.47;;;3.03;;
4414;SDS011;2220;42.670;23.398;2023-02-01T06:09:03;6.30;;;2.55;;
4414;SDS011;2220;42.670;23.398;2023-02-01T06:11:29;7.72;;;3.28;;
4414;SDS011;2220;42.670;23.398;2023-02-01T06:13:54;13.27;;;3.17;;
4414;SDS011;2220;42.670;23.398;2023-02-01T06:16:21;4.18;;;1.95;;
4414;SDS011;2220;42.670;23.398;2023-02-01T06:18:47;3.28;;;2.42;;
4414;SDS011;2220;42.670;23.398;2023-02-01T06:21:14;9.45;;;3.15;;
4414;SDS011;2220;42.670;23.398;2023-02-01T06:23:48;3.75;;;2.83;;
4414;SDS011;2220;42.670;23.398;2023-02-01T06:26:18;5.32;;;2.35;;
4414;SDS011;2220;42.670;23.398;2023-02-01T06:28:43;1.50;;;0.77;;
4414;SDS011;2220;42.670;23.398;2023-02-01T06:31:09;8.80;;;4.10;;
4414;SDS011;2220;42.670;23.398;2023-02-01T06:33:34;8.20;;;3.88;;
4414;SDS011;2220;42.670;23.398;2023-02-01T06:36:01;1.92;;;1.48;;
4414;SDS011;2220;42.670;23.398;2023-02-01T06:38:28;3.92;;;1.60;;
4414;SDS011;2220;42.670;23.398;2023-02-01T06:40:55;3.67;;;2.50;;
4414;SDS011;2220;42.670;23.398;2023-02-01T06:43:22;2.80;;;2.00;;
4414;SDS011;2220;42.670;23.398;2023-02-01T06:45:51;5.60;;;2.42;;
4414;SDS011;2220;42.670;23.398;2023-02-01T06:48:17;6.38;;;2.58;;
4414;SDS011;2220;42.670;23.398;2023-02-01T06:50:43;5.20;;;2.13;;
4414;SDS011;2220;42.670;23.398;2023-02-01T06:53:09;3.83;;;2.38;;
4414;SDS011;2220;42.670;23.398;2023-02-01T06:55:35;9.93;;;1.88;;
4414;SDS011;2220;42.670;23.398;2023-02-01T06:58:00;3.60;;;0.93;;
4414;SDS011;2220;42.670;23.398;2023-02-01T07:00:27;3.25;;;2.35;;
4414;SDS011;2220;42.670;23.398;2023-02-01T07:02:53;5.97;;;2.28;;
4414;SDS011;2220;42.670;23.398;2023-02-01T07:05:18;2.80;;;1.52;;
4414;SDS011;2220;42.670;23.398;2023-02-01T07:07:44;5.65;;;2.38;;
4414;SDS011;2220;42.670;23.398;2023-02-01T07:10:09;4.75;;;2.33;;
4414;SDS011;2220;42.670;23.398;2023-02-01T07:12:35;5.95;;;2.78;;
4414;SDS011;2220;42.670;23.398;2023-02-01T07:15:01;5.15;;;2.80;;
4414;SDS011;2220;42.670;23.398;2023-02-01T07:17:27;11.60;;;2.20;;
4414;SDS011;2220;42.670;23.398;2023-02-01T07:19:54;4.90;;;2.13;;
4414;SDS011;2220;42.670;23.398;2023-02-01T07:22:20;4.28;;;2.35;;
4414;SDS011;2220;42.670;23.398;2023-02-01T07:24:46;4.93;;;2.35;;
4414;SDS011;2220;42.670;23.398;2023-02-01T07:27:11;5.13;;;2.53;;
4414;SDS011;2220;42.670;23.398;2023-02-01T07:29:36;4.22;;;2.05;;
4414;SDS011;2220;42.670;23.398;2023-02-01T07:32:02;9.65;;;2.38;;
4414;SDS011;2220;42.670;23.398;2023-02-01T07:34:28;4.68;;;2.08;;
4414;SDS011;2220;42.670;23.398;2023-02-01T07:36:53;7.32;;;2.83;;
4414;SDS011;2220;42.670;23.398;2023-02-01T07:39:19;4.93;;;2.30;;
4414;SDS011;2220;42.670;23.398;2023-02-01T07:41:45;4.72;;;1.95;;
4414;SDS011;2220;42.670;23.398;2023-02-01T07:44:11;4.30;;;2.35;;
4414;SDS011;2220;42.670;23.398;2023-02-01T07:46:36;3.03;;;1.95;;
4414;SDS011;2220;42.670;23.398;2023-02-01T07:49:03;5.55;;;2.22;;
4414;SDS011;2220;42.670;23.398;2023-02-01T07:51:29;4.55;;;2.45;;
4414;SDS011;2220;42.670;23.398;2023-02-01T07:53:54;5.68;;;1.95;;
4414;SDS011;2220;42.670;23.398;2023-02-01T07:56:20;7.90;;;3.00;;
4414;SDS011;2220;42.670;23.398;2023-02-01T07:58:50;6.60;;;2.60;;
4414;SDS011;2220;42.670;23.398;2023-02-01T08:01:20;6.05;;;3.10;;
4414;SDS011;2220;42.670;23.398;2023-02-01T08:03:53;1.63;;;1.50;;
4414;SDS011;2220;42.670;23.398;2023-02-01T08:06:19;2.83;;;2.58;;
4414;SDS011;2220;42.670;23.398;2023-02-01T08:08:45;10.80;;;4.30;;
4414;SDS011;2220;42.670;23.398;2023-02-01T08:11:12;6.35;;;2.00;;
4414;SDS011;2220;42.670;23.398;2023-02-01T08:13:38;7.82;;;2.60;;
4414;SDS011;2220;42.670;23.398;2023-02-01T08:16:05;6.43;;;2.50;;
4414;SDS011;2220;42.670;23.398;2023-02-01T08:18:32;4.13;;;2.55;;
4414;SDS011;2220;42.670;23.398;2023-02-01T08:21:02;12.98;;;1.45;;
4414;SDS011;2220;42.670;23.398;2023-02-01T08:23:33;11.82;;;5.35;;
4414;SDS011;2220;42.670;23.398;2023-02-01T08:26:13;2.28;;;1.67;;
4414;SDS011;2220;42.670;23.398;2023-02-01T08:28:42;5.28;;;1.60;;
4414;SDS011;2220;42.670;23.398;2023-02-01T08:31:10;5.55;;;2.20;;
4414;SDS011;2220;42.670;23.398;2023-02-01T08:33:39;5.68;;;2.15;;
4414;SDS011;2220;42.670;23.398;2023-02-01T08:36:06;8.07;;;2.58;;
4414;SDS011;2220;42.670;23.398;2023-02-01T08:38:37;3.17;;;2.15;;
4414;SDS011;2220;42.670;23.398;2023-02-01T08:41:07;11.07;;;1.73;;
4414;SDS011;2220;42.670;23.398;2023-02-01T08:43:35;7.90;;;2.10;;
4414;SDS011;2220;42.670;23.398;2023-02-01T08:46:01;3.40;;;2.38;;
4414;SDS011;2220;42.670;23.398;2023-02-01T08:48:27;3.45;;;2.15;;
4414;SDS011;2220;42.670;23.398;2023-02-01T08:50:52;3.17;;;1.77;;
4414;SDS011;2220;42.670;23.398;2023-02-01T08:53:18;6.53;;;2.83;;
4414;SDS011;2220;42.670;23.398;2023-02-01T08:55:45;5.25;;;2.03;;
4414;SDS011;2220;42.670;23.398;2023-02-01T08:58:11;3.92;;;1.48;;
4414;SDS011;2220;42.670;23.398;2023-02-01T09:00:38;2.17;;;1.52;;
4414;SDS011;2220;42.670;23.398;2023-02-01T09:03:04;9.88;;;4.65;;
4414;SDS011;2220;42.670;23.398;2023-02-01T09:05:30;7.25;;;1.58;;
4414;SDS011;2220;42.670;23.398;2023-02-01T09:07:55;4.03;;;1.88;;
4414;SDS011;2220;42.670;23.398;2023-02-01T09:10:21;2.80;;;1.13;;
4414;SDS011;2220;42.670;23.398;2023-02-01T09:12:46;2.97;;;1.23;;
4414;SDS011;2220;42.670;23.398;2023-02-01T09:15:12;4.95;;;2.10;;
4414;SDS011;2220;42.670;23.398;2023-02-01T09:17:37;2.55;;;1.55;;
4414;SDS011;2220;42.670;23.398;2023-02-01T09:20:03;4.60;;;1.70;;
4414;SDS011;2220;42.670;23.398;2023-02-01T09:22:29;3.08;;;1.92;;
4414;SDS011;2220;42.670;23.398;2023-02-01T09:24:55;7.40;;;2.83;;
4414;SDS011;2220;42.670;23.398;2023-02-01T09:27:20;4.55;;;1.38;;
4414;SDS011;2220;42.670;23.398;2023-02-01T09:29:46;1.48;;;1.15;;
4414;SDS011;2220;42.670;23.398;2023-02-01T09:32:17;8.15;;;2.45;;
4414;SDS011;2220;42.670;23.398;2023-02-01T09:34:43;2.75;;;1.90;;
4414;SDS011;2220;42.670;23.398;2023-02-01T09:37:08;6.45;;;2.08;;
4414;SDS011;2220;42.670;23.398;2023-02-01T09:39:34;1.23;;;1.13;;
4414;SDS011;2220;42.670;23.398;2023-02-01T09:47:22;2.53;;;1.23;;
4414;SDS011;2220;42.670;23.398;2023-02-01T09:49:56;3.33;;;1.67;;
4414;SDS011;2220;42.670;23.398;2023-02-01T09:58:30;6.85;;;2.05;;
4414;SDS011;2220;42.670;23.398;2023-02-01T10:01:01;3.03;;;1.48;;
4414;SDS011;2220;42.670;23.398;2023-02-01T10:03:29;7.25;;;2.90;;
4414;SDS011;2220;42.670;23.398;2023-02-01T10:25:35;4.72;;;1.52;;
4414;SDS011;2220;42.670;23.398;2023-02-01T10:27:56;1.90;;;1.45;;
4414;SDS011;2220;42.670;23.398;2023-02-01T10:30:23;3.67;;;2.13;;
4414;SDS011;2220;42.670;23.398;2023-02-01T10:32:56;5.80;;;1.77;;
4414;SDS011;2220;42.670;23.398;2023-02-01T10:35:44;1.65;;;1.10;;
4414;SDS011;2220;42.670;23.398;2023-02-01T10:38:27;10.65;;;2.97;;
4414;SDS011;2220;42.670;23.398;2023-02-01T10:40:55;4.28;;;1.40;;
4414;SDS011;2220;42.670;23.398;2023-02-01T10:43:25;2.15;;;1.73;;
4414;SDS011;2220;42.670;23.398;2023-02-01T10:45:50;1.42;;;1.25;;
4414;SDS011;2220;42.670;23.398;2023-02-01T10:48:16;4.40;;;1.52;;
4414;SDS011;2220;42.670;23.398;2023-02-01T10:53:40;4.10;;;2.05;;
4414;SDS011;2220;42.670;23.398;2023-02-01T10:56:12;2.00;;;1.13;;
4414;SDS011;2220;42.670;23.398;2023-02-01T10:58:45;11.18;;;3.25;;
4414;SDS011;2220;42.670;23.398;2023-02-01T11:03:59;2.17;;;1.55;;
4414;SDS011;2220;42.670;23.398;2023-02-01T11:09:21;3.58;;;1.35;;
4414;SDS011;2220;42.670;23.398;2023-02-01T11:16:41;3.53;;;1.88;;
4414;SDS011;2220;42.670;23.398;2023-02-01T11:19:14;4.47;;;1.83;;
4414;SDS011;2220;42.670;23.398;2023-02-01T11:21:50;3.45;;;1.52;;
4414;SDS011;2220;42.670;23.398;2023-02-01T11:26:53;1.77;;;1.00;;
4414;SDS011;2220;42.670;23.398;2023-02-01T11:29:27;9.43;;;2.80;;
4414;SDS011;2220;42.670;23.398;2023-02-01T11:32:00;0.80;;;0.80;;
4414;SDS011;2220;42.670;23.398;2023-02-01T11:34:29;2.20;;;1.50;;
4414;SDS011;2220;42.670;23.398;2023-02-01T11:37:02;2.47;;;1.30;;
4414;SDS011;2220;42.670;23.398;2023-02-01T11:39:30;28.77;;;13.07;;
4414;SDS011;2220;42.670;23.398;2023-02-01T11:42:16;4.82;;;1.60;;
4414;SDS011;2220;42.670;23.398;2023-02-01T11:44:43;6.50;;;1.35;;
4414;SDS011;2220;42.670;23.398;2023-02-01T11:49:48;3.80;;;1.08;;
4414;SDS011;2220;42.670;23.398;2023-02-01T11:57:42;1.05;;;1.02;;
4414;SDS011;2220;42.670;23.398;2023-02-01T12:00:31;3.13;;;0.95;;
4414;SDS011;2220;42.670;23.398;2023-02-01T12:06:46;2.05;;;0.90;;
4414;SDS011;2220;42.670;23.398;2023-02-01T12:22:43;2.25;;;1.00;;
4414;SDS011;2220;42.670;23.398;2023-02-01T12:25:20;1.42;;;1.13;;
4414;SDS011;2220;42.670;23.398;2023-02-01T12:34:20;11.00;;;1.42;;
4414;SDS011;2220;42.670;23.398;2023-02-01T12:39:31;4.57;;;1.25;;
4414;SDS011;2220;42.670;23.398;2023-02-01T12:44:38;3.70;;;1.38;;
4414;SDS011;2220;42.670;23.398;2023-02-01T12:49:55;2.08;;;1.00;;
4414;SDS011;2220;42.670;23.398;2023-02-01T12:55:35;3.15;;;1.73;;
4414;SDS011;2220;42.670;23.398;2023-02-01T12:58:06;1.02;;;0.93;;
4414;SDS011;2220;42.670;23.398;2023-02-01T13:00:46;1.83;;;1.55;;
4414;SDS011;2220;42.670;23.398;2023-02-01T13:06:20;1.35;;;0.98;;
4414;SDS011;2220;42.670;23.398;2023-02-01T13:11:40;7.30;;;1.30;;
4414;SDS011;2220;42.670;23.398;2023-02-01T13:22:25;1.20;;;1.05;;
4414;SDS011;2220;42.670;23.398;2023-02-01T13:25:12;3.28;;;1.10;;
4414;SDS011;2220;42.670;23.398;2023-02-01T13:27:41;3.40;;;0.65;;
4414;SDS011;2220;42.670;23.398;2023-02-01T13:30:11;1.38;;;1.00;;
4414;SDS011;2220;42.670;23.398;2023-02-01T13:43:53;2.42;;;1.35;;
4414;SDS011;2220;42.670;23.398;2023-02-01T13:46:23;2.38;;;1.20;;
4414;SDS011;2220;42.670;23.398;2023-02-01T13:48:50;1.88;;;1.33;;
4414;SDS011;2220;42.670;23.398;2023-02-01T13:51:29;1.10;;;0.90;;
4414;SDS011;2220;42.670;23.398;2023-02-01T13:54:00;2.20;;;1.10;;
4414;SDS011;2220;42.670;23.398;2023-02-01T13:56:26;2.10;;;1.17;;
4414;SDS011;2220;42.670;23.398;2023-02-01T13:58:52;2.15;;;1.15;;
4414;SDS011;2220;42.670;23.398;2023-02-01T14:03:47;2.58;;;1.30;;
4414;SDS011;2220;42.670;23.398;2023-02-01T14:06:16;1.17;;;0.80;;
4414;SDS011;2220;42.670;23.398;2023-02-01T14:14:45;2.38;;;1.05;;
4414;SDS011;2220;42.670;23.398;2023-02-01T14:19:29;3.65;;;0.90;;
4414;SDS011;2220;42.670;23.398;2023-02-01T14:22:41;2.28;;;1.40;;
4414;SDS011;2220;42.670;23.398;2023-02-01T14:24:49;1.20;;;1.10;;
4414;SDS011;2220;42.670;23.398;2023-02-01T14:27:19;1.83;;;1.02;;
4414;SDS011;2220;42.670;23.398;2023-02-01T14:29:51;1.27;;;0.90;;
4414;SDS011;2220;42.670;23.398;2023-02-01T14:32:31;1.38;;;1.05;;
4414;SDS011;2220;42.670;23.398;2023-02-01T14:35:02;2.97;;;1.20;;
4414;SDS011;2220;42.670;23.398;2023-02-01T14:37:33;2.10;;;1.50;;
4414;SDS011;2220;42.670;23.398;2023-02-01T15:09:19;1.80;;;1.23;;
4414;SDS011;2220;42.670;23.398;2023-02-01T15:15:02;2.17;;;1.15;;
4414;SDS011;2220;42.670;23.398;2023-02-01T15:17:39;2.33;;;1.35;;
4414;SDS011;2220;42.670;23.398;2023-02-01T15:20:13;4.63;;;1.27;;
4414;SDS011;2220;42.670;23.398;2023-02-01T15:23:00;4.57;;;1.20;;
4414;SDS011;2220;42.670;23.398;2023-02-01T15:25:30;3.28;;;1.55;;
4414;SDS011;2220;42.670;23.398;2023-02-01T15:28:03;1.52;;;1.20;;
4414;SDS011;2220;42.670;23.398;2023-02-01T15:30:32;2.08;;;1.48;;
4414;SDS011;2220;42.670;23.398;2023-02-01T15:46:23;1.17;;;1.00;;
4414;SDS011;2220;42.670;23.398;2023-02-01T15:48:54;1.63;;;0.65;;
4414;SDS011;2220;42.670;23.398;2023-02-01T15:51:22;3.53;;;1.88;;
4414;SDS011;2220;42.670;23.398;2023-02-01T15:54:01;2.22;;;1.38;;
4414;SDS011;2220;42.670;23.398;2023-02-01T15:56:33;5.88;;;2.03;;
4414;SDS011;2220;42.670;23.398;2023-02-01T15:59:01;5.45;;;2.78;;
4414;SDS011;2220;42.670;23.398;2023-02-01T16:01:30;5.63;;;2.50;;
4414;SDS011;2220;42.670;23.398;2023-02-01T16:04:04;3.35;;;2.35;;
4414;SDS011;2220;42.670;23.398;2023-02-01T16:06:50;3.67;;;2.63;;
4414;SDS011;2220;42.670;23.398;2023-02-01T16:09:39;5.70;;;2.60;;
4414;SDS011;2220;42.670;23.398;2023-02-01T16:12:33;2.13;;;1.23;;
4414;SDS011;2220;42.670;23.398;2023-02-01T16:15:12;1.98;;;1.27;;
4414;SDS011;2220;42.670;23.398;2023-02-01T16:17:40;1.67;;;1.58;;
4414;SDS011;2220;42.670;23.398;2023-02-01T16:20:07;2.72;;;2.00;;
4414;SDS011;2220;42.670;23.398;2023-02-01T16:22:34;6.78;;;1.85;;
4414;SDS011;2220;42.670;23.398;2023-02-01T16:24:59;1.38;;;0.68;;
4414;SDS011;2220;42.670;23.398;2023-02-01T16:27:24;2.80;;;1.52;;
4414;SDS011;2220;42.670;23.398;2023-02-01T16:29:59;4.75;;;1.55;;
4414;SDS011;2220;42.670;23.398;2023-02-01T16:32:24;3.25;;;1.42;;
4414;SDS011;2220;42.670;23.398;2023-02-01T16:34:51;0.80;;;0.80;;
4414;SDS011;2220;42.670;23.398;2023-02-01T16:37:19;1.65;;;1.35;;
4414;SDS011;2220;42.670;23.398;2023-02-01T16:39:46;2.55;;;0.98;;
4414;SDS011;2220;42.670;23.398;2023-02-01T16:42:12;3.40;;;1.25;;
4414;SDS011;2220;42.670;23.398;2023-02-01T16:44:44;1.13;;;1.02;;
4414;SDS011;2220;42.670;23.398;2023-02-01T16:47:19;4.18;;;1.88;;
4414;SDS011;2220;42.670;23.398;2023-02-01T16:49:46;2.25;;;1.00;;
4414;SDS011;2220;42.670;23.398;2023-02-01T16:52:19;6.55;;;1.40;;
4414;SDS011;2220;42.670;23.398;2023-02-01T16:54:46;3.03;;;1.30;;
4414;SDS011;2220;42.670;23.398;2023-02-01T16:57:13;0.90;;;0.88;;
4414;SDS011;2220;42.670;23.398;2023-02-01T16:59:40;0.45;;;0.38;;
4414;SDS011;2220;42.670;23.398;2023-02-01T17:02:08;4.22;;;1.08;;
4414;SDS011;2220;42.670;23.398;2023-02-01T17:04:39;4.90;;;1.27;;
4414;SDS011;2220;42.670;23.398;2023-02-01T17:07:04;3.60;;;1.38;;
4414;SDS011;2220;42.670;23.398;2023-02-01T17:09:37;2.03;;;1.17;;
4414;SDS011;2220;42.670;23.398;2023-02-01T17:12:03;2.70;;;1.35;;
4414;SDS011;2220;42.670;23.398;2023-02-01T17:14:30;4.47;;;2.58;;
4414;SDS011;2220;42.670;23.398;2023-02-01T17:16:59;7.68;;;3.20;;
4414;SDS011;2220;42.670;23.398;2023-02-01T17:19:25;5.68;;;2.05;;
4414;SDS011;2220;42.670;23.398;2023-02-01T17:21:51;1.42;;;1.33;;
4414;SDS011;2220;42.670;23.398;2023-02-01T17:24:21;1.17;;;1.02;;
4414;SDS011;2220;42.670;23.398;2023-02-01T17:26:49;4.90;;;2.50;;
4414;SDS011;2220;42.670;23.398;2023-02-01T17:29:16;9.23;;;2.47;;
4414;SDS011;2220;42.670;23.398;2023-02-01T17:31:43;7.32;;;2.78;;
4414;SDS011;2220;42.670;23.398;2023-02-01T17:34:10;6.40;;;2.65;;
4414;SDS011;2220;42.670;23.398;2023-02-01T17:36:39;2.70;;;1.80;;
4414;SDS011;2220;42.670;23.398;2023-02-01T17:39:05;4.97;;;2.33;;
4414;SDS011;2220;42.670;23.398;2023-02-01T17:41:30;3.45;;;2.53;;
4414;SDS011;2220;42.670;23.398;2023-02-01T17:43:56;4.97;;;2.53;;
4414;SDS011;2220;42.670;23.398;2023-02-01T17:46:22;5.10;;;3.28;;
4414;SDS011;2220;42.670;23.398;2023-02-01T17:48:51;7.45;;;3.05;;
4414;SDS011;2220;42.670;23.398;2023-02-01T17:51:21;7.90;;;4.00;;
4414;SDS011;2220;42.670;23.398;2023-02-01T17:53:51;10.10;;;4.25;;
4414;SDS011;2220;42.670;23.398;2023-02-01T17:56:21;4.60;;;2.90;;
4414;SDS011;2220;42.670;23.398;2023-02-01T17:58:51;5.38;;;2.85;;
4414;SDS011;2220;42.670;23.398;2023-02-01T18:01:25;2.28;;;1.40;;
4414;SDS011;2220;42.670;23.398;2023-02-01T18:03:51;4.78;;;1.95;;
4414;SDS011;2220;42.670;23.398;2023-02-01T18:06:17;3.15;;;1.23;;
4414;SDS011;2220;42.670;23.398;2023-02-01T18:08:46;4.03;;;3.05;;
4414;SDS011;2220;42.670;23.398;2023-02-01T18:11:12;13.25;;;5.65;;
4414;SDS011;2220;42.670;23.398;2023-02-01T18:13:40;31.15;;;10.43;;
4414;SDS011;2220;42.670;23.398;2023-02-01T18:16:09;33.10;;;14.70;;
4414;SDS011;2220;42.670;23.398;2023-02-01T18:18:41;31.48;;;13.23;;
4414;SDS011;2220;42.670;23.398;2023-02-01T18:21:07;9.52;;;5.88;;
4414;SDS011;2220;42.670;23.398;2023-02-01T18:23:36;16.42;;;7.00;;
4414;SDS011;2220;42.670;23.398;2023-02-01T18:26:02;11.32;;;5.15;;
4414;SDS011;2220;42.670;23.398;2023-02-01T18:28:28;11.68;;;5.75;;
4414;SDS011;2220;42.670;23.398;2023-02-01T18:30:53;14.50;;;5.65;;
4414;SDS011;2220;42.670;23.398;2023-02-01T18:33:19;12.40;;;5.78;;